Latest Weather Observations for Wagga Wagga

IDN60801

Issued at 11:05 am EDT Saturday 1 November 2014 (issued every 30 minutes, with the page automatically refreshed every 10 minutes)

About weather observations | Map of weather stations | Latest weather observations for NSW | Other Formats
Station Details ID: 072150 Name: WAGGA WAGGA AMO Lat: -35.16 Lon: 147.46 Height: 212.0 m
Data from the previous 72 hours. | See also: Recent months at Wagga Wagga
Date/Time
EDT
Temp
°C
App
Temp
°C
Dew
Point
Rel
Hum
%
Delta-T
°C
Wind Press
QNH
hPa
Press
MSL
hPa
Rain
since 9 am
mm
Dir
 
Spd
km/h
Gust
km/h
Spd
kts
Gust
kts
01/10:30am 22.4 17.7 9.4 43 7.1 W 24 32 13 17 1003.9 1003.7 0.0
01/10:00am 24.1 17.7 5.4 30 9.6 W 28 37 15 20 1004.1 1003.9 0.0
01/09:30am 24.1 17.5 5.9 31 9.4 WSW 30 46 16 25 1003.6 1003.4 0.0
01/09:00am 24.3 18.5 4.2 27 10.1 W 24 32 13 17 1003.2 1003.0 0.0
01/08:00am 25.0 19.9 10.7 40 8.1 NNW 28 39 15 21 1002.9 1002.7 0.0
01/07:30am 23.0 19.6 10.7 45 6.9 NNW 19 28 10 15 1003.1 1002.9 0.0
01/07:00am 22.9 19.5 10.5 45 6.9 N 19 30 10 16 1002.9 1002.7 0.0
01/06:30am 22.8 17.6 10.4 45 6.9 NW 28 35 15 19 1001.9 1001.6 0.0
01/06:25am 22.6 15.4 10.6 46 6.7 W 39 50 21 27 1003.6 1003.4 0.0
01/06:23am 22.4 17.7 10.6 47 6.6 NW 26 37 14 20 1002.9 1002.7 0.0
01/06:00am 22.5 19.5 10.7 47 6.6 N 17 24 9 13 1000.7 1000.4 0.0
01/05:30am 22.7 19.2 11.0 47 6.6 N 20 32 11 17 1000.8 1000.5 0.0
01/05:00am 22.6 18.8 11.1 48 6.5 N 22 33 12 18 1001.2 1000.9 0.0
01/04:30am 23.2 18.9 10.7 45 7.0 N 24 35 13 19 1001.2 1000.9 0.0
01/04:00am 23.7 19.3 10.5 43 7.4 N 24 37 13 20 1001.7 1001.4 0.0
01/03:30am 24.2 19.1 10.5 42 7.7 N 28 39 15 21 1001.9 1001.6 0.0
01/03:00am 24.8 20.0 10.2 39 8.2 N 26 39 14 21 1002.0 1001.7 0.0
01/02:30am 25.0 19.5 9.0 36 8.8 N 28 41 15 22 1002.1 1001.8 0.0
01/02:00am 24.6 19.7 5.0 28 10.0 N 20 35 11 19 1002.5 1002.2 0.0
01/01:30am 24.7 18.2 0.1 20 11.4 N 24 37 13 20 1003.0 1002.8 0.0
01/01:00am 21.5 17.8 -0.1 23 9.8 NW 9 11 5 6 1003.3 1003.1 0.0
01/12:30am 19.5 16.3 2.8 33 7.9 WNW 9 9 5 5 1003.2 1003.0 0.0
01/12:00am 18.3 14.7 2.7 35 7.3 SW 11 13 6 7 1003.3 1003.1 0.0
 
Date/Time
EDT
Temp
°C
App
Temp
°C
Dew
Point
Rel
Hum
%
Delta-T
°C
Wind Press
QNH
hPa
Press
MSL
hPa
Rain
since 9 am
mm
Dir
 
Spd
km/h
Gust
km/h
Spd
kts
Gust
kts
31/11:30pm 17.3 14.7 4.4 42 6.2 SW 7 11 4 6 1003.5 1003.3 0.0
31/11:00pm 17.7 15.5 3.5 38 6.7 W 4 9 2 5 1003.8 1003.6 0.0
31/10:30pm 18.3 15.8 3.6 37 7.0 NNE 6 7 3 4 1003.9 1003.7 0.0
31/10:00pm 23.4 20.3 3.5 27 9.8 NNE 9 11 5 6 1004.3 1004.0 0.0
31/09:30pm 25.1 21.4 0.1 19 11.7 NNE 9 11 5 6 1004.3 1004.0 0.0
31/09:00pm 26.1 22.5 0.8 19 12.1 NNE 9 9 5 5 1004.1 1003.9 0.0
31/08:30pm 27.5 23.7 -0.5 16 13.1 N 9 9 5 5 1004.1 1003.9 0.0
31/08:00pm 29.0 25.0 -2.0 13 14.4 N 9 13 5 7 1004.1 1003.9 0.0
31/07:30pm 29.8 25.3 -3.2 11 15.0 NNW 11 15 6 8 1004.1 1003.9 0.0
31/07:00pm 30.9 25.4 -5.2 9 16.1 NW 15 20 8 11 1004.3 1004.0 0.0
31/06:30pm 31.4 25.9 -5.3 9 16.3 WNW 15 19 8 10 1004.5 1004.2 0.0
31/06:00pm 32.0 23.9 -6.9 8 17.0 WNW 28 35 15 19 1004.5 1004.2 0.0
31/05:30pm 33.5 25.4 -6.4 7 17.7 WNW 28 39 15 21 1004.6 1004.3 0.0
31/05:00pm 33.1 25.6 -4.8 8 17.3 NW 26 32 14 17 1004.6 1004.3 0.0
31/04:30pm 33.0 24.8 -7.8 7 17.6 NW 28 43 15 23 1004.8 1004.5 0.0
31/04:03pm 34.0 25.8 -7.9 6 18.2 NW 28 48 15 26 1005.0 1004.7 0.0
31/04:00pm 34.8 27.1 -6.7 7 18.6 NW 26 37 14 20 1004.9 1004.6 0.0
31/03:30pm 35.2 26.8 -5.8 7 18.6 NNW 30 41 16 22 1005.3 1005.0 0.0
31/03:00pm 33.3 23.7 -8.8 6 18.0 NNW 35 46 19 25 1005.8 1005.5 0.0
31/02:30pm 34.1 25.1 -8.3 6 18.3 NNW 32 44 17 24 1006.2 1005.9 0.0
31/02:00pm 34.4 27.5 -6.4 7 18.3 NNW 22 32 12 17 1006.7 1006.5 0.0
31/01:30pm 33.4 25.3 -7.0 7 17.7 WNW 28 41 15 22 1007.3 1007.1 0.0
31/01:00pm 33.9 26.9 -3.4 9 17.5 NNW 24 32 13 17 1007.9 1007.7 0.0
31/12:36pm 32.3 24.4 -4.8 9 16.8 WNW 28 46 15 25 1008.4 1008.2 0.0
31/12:30pm 32.6 25.4 -5.5 8 17.1 NW 24 37 13 20 1008.5 1008.3 0.0
31/12:00pm 32.1 27.2 -0.3 12 15.8 N 15 26 8 14 1009.1 1008.9 0.0
31/11:30am 31.3 26.2 0.7 14 15.1 N 17 22 9 12 1010.0 1009.7 0.0
31/11:00am 29.9 25.3 1.8 16 14.0 NE 15 26 8 14 1010.6 1010.3 0.0
31/10:30am 26.9 21.5 2.7 21 12.0 ENE 20 30 11 16 1011.1 1010.9 0.0
31/10:00am 23.7 18.8 2.3 24 10.3 E 17 22 9 12 1011.6 1011.4 0.0
31/09:30am 23.4 18.2 2.7 25 10.0 ENE 19 22 10 12 1012.0 1011.8 0.0
31/09:00am 21.0 16.3 3.0 30 8.6 E 17 20 9 11 1012.5 1012.3 0.0
31/08:30am 19.3 15.4 3.6 35 7.5 E 13 17 7 9 1013.1 1012.9 0.0
31/08:00am 16.9 12.5 2.8 39 6.5 E 15 17 8 9 1012.9 1012.7 0.0
31/07:30am 15.6 11.8 2.0 40 6.1 E 11 13 6 7 1012.7 1012.5 0.0
31/07:00am 12.5 8.8 2.5 50 4.4 ESE 11 11 6 6 1012.5 1012.3 0.0
31/06:30am 11.6 7.8 1.9 51 4.2 E 11 13 6 7 1012.0 1011.8 0.0
31/06:00am 11.6 8.2 1.6 50 4.3 E 9 13 5 7 1011.6 1011.4 0.0
31/05:30am 12.0 8.9 1.6 49 4.5 ESE 7 9 4 5 1011.3 1011.1 0.0
31/05:00am 12.1 9.1 1.7 49 4.5 E 7 7 4 4 1011.1 1010.9 0.0
31/04:30am 12.0 9.0 2.2 51 4.3 ESE 7 9 4 5 1011.1 1010.9 0.0
31/04:00am 11.6 8.0 2.8 54 3.9 ESE 11 13 6 7 1011.1 1010.9 0.0
31/03:30am 10.4 9.0 3.4 62 3.1 CALM 0 0 0 0 1011.1 1010.9 0.0
31/03:00am 12.2 10.5 3.8 56 3.8 ENE 2 7 1 4 1011.2 1011.0 0.0
31/02:30am 10.5 9.3 4.6 67 2.7 CALM 0 0 0 0 1011.5 1011.3 0.0
31/02:00am 12.5 10.4 4.0 56 3.9 ESE 4 7 2 4 1011.7 1011.5 0.0
31/01:30am 11.6 10.3 3.9 59 3.5 CALM 0 0 0 0 1012.0 1011.8 0.0
31/01:00am 11.7 9.5 3.2 56 3.8 SE 4 7 2 4 1012.4 1012.2 0.0
31/12:30am 15.0 11.3 2.6 43 5.6 ESE 11 11 6 6 1012.5 1012.3 0.0
31/12:00am 16.0 12.6 1.7 38 6.4 E 9 9 5 5 1012.5 1012.3 0.0
 
Date/Time
EDT
Temp
°C
App
Temp
°C
Dew
Point
Rel
Hum
%
Delta-T
°C
Wind Press
QNH
hPa
Press
MSL
hPa
Rain
since 9 am
mm
Dir
 
Spd
km/h
Gust
km/h
Spd
kts
Gust
kts
30/11:30pm 17.3 14.2 1.2 33 7.2 E 7 7 4 4 1012.6 1012.4 0.0
30/11:00pm 17.8 14.4 1.7 34 7.3 ENE 9 11 5 6 1012.6 1012.4 0.0
30/10:30pm 19.2 16.0 0.8 29 8.3 SSW 7 9 4 5 1012.6 1012.4 0.0
30/10:00pm 19.1 17.4 2.0 32 7.9 CALM 0 4 0 2 1012.5 1012.3 0.0
30/09:30pm 19.5 17.7 1.4 30 8.3 CALM 0 0 0 0 1012.4 1012.2 0.0
30/09:00pm 20.1 17.4 2.7 31 8.2 SSW 6 7 3 4 1012.2 1012.0 0.0
30/08:30pm 21.4 18.1 0.3 24 9.6 SSW 7 9 4 5 1011.9 1011.7 0.0
30/08:00pm 22.6 20.9 1.6 25 9.9 CALM 0 2 0 1 1011.7 1011.5 0.0
30/07:30pm 25.2 21.1 -0.2 19 11.8 WSW 11 13 6 7 1011.5 1011.3 0.0
30/07:00pm 27.4 21.8 -2.7 14 13.6 W 17 19 9 10 1011.2 1011.0 0.0
30/06:30pm 29.1 21.9 -5.1 10 15.0 WSW 24 37 13 20 1011.0 1010.8 0.0
30/06:00pm 29.8 22.9 -5.7 9 15.5 W 22 33 12 18 1010.9 1010.7 0.0
30/05:30pm 30.3 22.2 -7.0 8 16.0 W 28 39 15 21 1010.9 1010.7 0.0
30/05:00pm 30.5 22.5 -5.7 9 15.9 W 28 37 15 20 1011.0 1010.8 0.0
30/04:30pm 30.8 24.6 -4.7 10 15.9 W 19 26 10 14 1011.1 1010.9 0.0
30/04:00pm 30.6 25.0 -3.1 11 15.5 W 17 26 9 14 1011.4 1011.2 0.0
30/03:30pm 30.1 22.8 -6.5 9 15.8 W 24 39 13 21 1011.7 1011.5 0.0
30/03:00pm 29.7 22.4 -6.1 9 15.5 W 24 39 13 21 1012.0 1011.8 0.0
30/02:30pm 29.9 23.5 -5.4 10 15.5 W 20 39 11 21 1012.5 1012.3 0.0
30/02:00pm 29.8 22.9 -3.0 11 15.0 SW 24 39 13 21 1013.1 1012.9 0.0
30/01:30pm 27.6 21.9 -0.9 15 13.3 NW 19 32 10 17 1013.4 1013.2 0.0
30/01:00pm 27.1 21.7 -1.7 15 13.2 WSW 17 30 9 16 1013.8 1013.6 0.0
30/12:30pm 27.1 21.9 0.0 17 12.8 W 17 24 9 13 1014.4 1014.1 0.0
30/12:00pm 26.1 21.0 0.9 19 12.0 W 17 30 9 16 1014.9 1014.7 0.0
30/11:30am 25.3 21.3 2.6 23 11.1 NW 13 20 7 11 1015.4 1015.2 0.0
30/11:00am 24.1 20.3 4.0 27 10.0 N 13 19 7 10 1015.5 1015.3 0.0
30/10:30am 22.8 20.4 5.1 31 8.9 N 7 11 4 6 1015.8 1015.6 0.0
30/10:00am 20.9 18.7 6.1 38 7.5 NE 7 11 4 6 1015.9 1015.7 0.0
30/09:30am 18.8 16.7 6.7 45 6.1 E 7 11 4 6 1015.9 1015.7 0.0
30/09:00am 16.6 13.5 5.7 48 5.3 ENE 11 15 6 8 1016.2 1016.0 0.0
30/08:30am 15.1 12.0 5.5 52 4.6 E 11 13 6 7 1016.3 1016.1 0.0
30/08:00am 13.1 10.4 5.5 60 3.6 ESE 9 11 5 6 1016.0 1015.8 0.0
30/07:30am 11.0 9.9 6.8 75 2.0 SE 2 6 1 3 1015.8 1015.6 0.0
30/07:00am 9.9 7.6 5.8 75 1.9 E 7 9 4 5 1015.5 1015.3 0.0
30/06:30am 7.7 5.4 4.8 82 1.3 E 6 7 3 4 1015.3 1015.1 0.0
30/06:00am 7.8 6.7 4.9 82 1.3 CALM 0 0 0 0 1015.0 1014.8 0.0
30/05:30am 7.9 6.8 5.0 82 1.3 CALM 0 0 0 0 1015.1 1014.9 0.0
30/05:00am 9.1 6.5 4.4 72 2.1 SSE 7 7 4 4 1015.0 1014.8 0.0
30/04:30am 8.3 6.3 4.5 77 1.7 SSE 4 9 2 5 1014.8 1014.6 0.0
30/04:00am 7.6 6.4 4.7 82 1.3 CALM 0 0 0 0 1015.0 1014.8 0.0
30/03:30am 7.7 6.5 4.8 82 1.3 CALM 0 0 0 0 1014.7 1014.5 0.0
30/03:00am 8.1 6.9 4.5 78 1.6 CALM 0 4 0 2 1015.0 1014.8 0.0
30/02:30am 10.1 8.2 5.1 71 2.3 SSE 4 7 2 4 1015.0 1014.8 0.0
30/02:00am 9.2 7.9 4.0 70 2.3 CALM 0 0 0 0 1015.3 1015.1 0.0
30/01:30am 9.8 7.0 5.0 72 2.2 SE 9 11 5 6 1015.3 1015.1 0.0
30/01:00am 12.4 9.5 4.6 59 3.6 ESE 9 11 5 6 1015.4 1015.2 0.0
30/12:30am 12.4 11.4 5.4 62 3.3 CALM 0 0 0 0 1015.7 1015.5 0.0
30/12:00am 13.4 12.3 5.1 57 3.9 CALM 0 0 0 0 1015.9 1015.7 0.0
 
Date/Time
EDT
Temp
°C
App
Temp
°C
Dew
Point
Rel
Hum
%
Delta-T
°C
Wind Press
QNH
hPa
Press
MSL
hPa
Rain
since 9 am
mm
Dir
 
Spd
km/h
Gust
km/h
Spd
kts
Gust
kts
29/11:30pm 14.5 12.2 5.0 53 4.5 E 6 7 3 4 1016.0 1015.8 0.0
29/11:00pm 14.8 13.4 5.4 53 4.5 S 2 7 1 4 1015.9 1015.7 0.0
29/10:30pm 14.6 11.9 5.4 54 4.4 SSW 9 11 5 6 1015.9 1015.7 0.0
29/10:00pm 14.7 11.4 4.7 51 4.7 SSW 11 11 6 6 1015.8 1015.6 0.0
29/09:30pm 15.8 12.3 3.5 43 5.7 SSW 11 13 6 7 1015.7 1015.5 0.0
29/09:00pm 16.2 12.4 4.1 44 5.7 SSW 13 13 7 7 1015.6 1015.4 0.0
29/08:30pm 18.7 15.6 3.8 37 7.1 WSW 9 11 5 6 1015.3 1015.1 0.0
29/08:00pm 20.6 17.3 2.6 30 8.5 W 9 13 5 7 1015.1 1014.9 0.0
29/07:30pm 21.6 17.5 2.4 28 9.1 WSW 13 17 7 9 1014.6 1014.3 0.0
29/07:00pm 23.7 19.0 1.2 22 10.6 WSW 15 19 8 10 1014.4 1014.1 0.0
29/06:30pm 24.5 19.7 0.2 20 11.3 W 15 20 8 11 1014.3 1014.0 0.0
29/06:00pm 24.9 20.4 -0.5 18 11.7 W 13 22 7 12 1014.3 1014.0 0.0
29/05:30pm 25.1 20.6 -0.5 18 11.8 SW 13 20 7 11 1014.2 1013.9 0.0
29/05:00pm 25.7 20.6 0.5 19 11.9 SW 17 20 9 11 1014.5 1014.2 0.0
29/04:30pm 25.7 19.1 -0.4 18 12.1 WSW 24 30 13 16 1014.6 1014.3 0.0
29/04:00pm 25.5 20.5 1.2 20 11.6 W 17 28 9 15 1014.8 1014.6 0.0
29/03:30pm 25.1 19.0 0.3 19 11.6 W 22 32 12 17 1015.1 1014.9 0.0
29/03:00pm 24.5 18.6 -0.6 19 11.5 WNW 20 37 11 20 1015.6 1015.4 0.0
29/02:30pm 23.8 18.0 0.2 21 10.9 WNW 20 32 11 17 1015.9 1015.7 0.0
29/02:00pm 23.7 18.5 0.0 21 10.9 WSW 17 32 9 17 1016.3 1016.1 0.0
29/01:30pm 23.2 18.0 0.1 21 10.6 SSW 17 28 9 15 1016.6 1016.4 0.0
29/01:00pm 22.8 18.2 1.5 24 10.0 WSW 15 24 8 13 1016.8 1016.6 0.0
29/12:30pm 22.0 16.4 1.0 25 9.7 W 20 26 11 14 1017.3 1017.1 0.0
29/12:00pm 20.8 16.7 2.3 29 8.7 W 13 22 7 12 1017.8 1017.6 0.0
29/11:30am 20.4 14.8 1.5 28 8.7 SW 20 30 11 16 1018.2 1018.0 0.0

Other Formats:

Comma delimited format used in spreadsheet applications
http://www.bom.gov.au/fwo/IDN60801/IDN60801.94910.axf

JavaScript Object Notation format (JSON) in row-major order
http://www.bom.gov.au/fwo/IDN60801/IDN60801.94910.json